<?xml version="1.0" encoding="UTF-8" standalone="no" ?>
<gpx xmlns="http://www.topografix.com/GPX/1/1" xmlns:xsi="http://www.w3.org/2001/XMLSchema-instance" xsi:schemaLocation="http://www.topografix.com/GPX/1/1 http://www.topografix.com/GPX/1/1/gpx.xsd" version="1.1" creator="VisuGPX - https://www.visugpx.com">
  <metadata>
    <name>10426750-Monplot par Dragonnet</name>
  </metadata>
  <trk>
    <name><![CDATA[10426750-Monplot par Dragonnet]]></name>
    <trkseg>
      <trkpt lat="45.13714" lon="4.73292">
        <ele>435</ele>
        <time>2021-02-22T17:13:39Z</time>
      </trkpt>
      <trkpt lat="45.13701" lon="4.73245">
        <ele>435</ele>
        <time>2021-02-22T17:14:08Z</time>
      </trkpt>
      <trkpt lat="45.13669" lon="4.73277">
        <ele>438</ele>
        <time>2021-02-22T17:14:39Z</time>
      </trkpt>
      <trkpt lat="45.13593" lon="4.73061">
        <ele>442</ele>
        <time>2021-02-22T17:16:55Z</time>
      </trkpt>
      <trkpt lat="45.13559" lon="4.73055">
        <ele>444</ele>
        <time>2021-02-22T17:17:23Z</time>
      </trkpt>
      <trkpt lat="45.13428" lon="4.73259">
        <ele>456</ele>
        <time>2021-02-22T17:19:58Z</time>
      </trkpt>
      <trkpt lat="45.13404" lon="4.73389">
        <ele>457</ele>
        <time>2021-02-22T17:21:14Z</time>
      </trkpt>
      <trkpt lat="45.13522" lon="4.73471">
        <ele>450</ele>
        <time>2021-02-22T17:23:00Z</time>
      </trkpt>
      <trkpt lat="45.13482" lon="4.73576">
        <ele>449</ele>
        <time>2021-02-22T17:24:07Z</time>
      </trkpt>
      <trkpt lat="45.13343" lon="4.73775">
        <ele>446</ele>
        <time>2021-02-22T17:26:45Z</time>
      </trkpt>
      <trkpt lat="45.13316" lon="4.73782">
        <ele>447</ele>
        <time>2021-02-22T17:27:07Z</time>
      </trkpt>
      <trkpt lat="45.13232" lon="4.73879">
        <ele>444</ele>
        <time>2021-02-22T17:28:34Z</time>
      </trkpt>
      <trkpt lat="45.13238" lon="4.73923">
        <ele>441</ele>
        <time>2021-02-22T17:28:59Z</time>
      </trkpt>
      <trkpt lat="45.13265" lon="4.74035">
        <ele>436</ele>
        <time>2021-02-22T17:30:06Z</time>
      </trkpt>
      <trkpt lat="45.1331" lon="4.74093">
        <ele>434</ele>
        <time>2021-02-22T17:30:55Z</time>
      </trkpt>
      <trkpt lat="45.13384" lon="4.74112">
        <ele>434</ele>
        <time>2021-02-22T17:31:55Z</time>
      </trkpt>
      <trkpt lat="45.13456" lon="4.74061">
        <ele>430</ele>
        <time>2021-02-22T17:32:59Z</time>
      </trkpt>
      <trkpt lat="45.13602" lon="4.74056">
        <ele>420</ele>
        <time>2021-02-22T17:34:56Z</time>
      </trkpt>
      <trkpt lat="45.1363" lon="4.74012">
        <ele>421</ele>
        <time>2021-02-22T17:35:30Z</time>
      </trkpt>
      <trkpt lat="45.13723" lon="4.73973">
        <ele>421</ele>
        <time>2021-02-22T17:36:47Z</time>
      </trkpt>
      <trkpt lat="45.1379" lon="4.73895">
        <ele>424</ele>
        <time>2021-02-22T17:37:57Z</time>
      </trkpt>
      <trkpt lat="45.13844" lon="4.73809">
        <ele>425</ele>
        <time>2021-02-22T17:39:02Z</time>
      </trkpt>
      <trkpt lat="45.13868" lon="4.73793">
        <ele>426</ele>
        <time>2021-02-22T17:39:23Z</time>
      </trkpt>
      <trkpt lat="45.13907" lon="4.73734">
        <ele>427</ele>
        <time>2021-02-22T17:40:09Z</time>
      </trkpt>
      <trkpt lat="45.13929" lon="4.73333">
        <ele>430</ele>
        <time>2021-02-22T17:43:56Z</time>
      </trkpt>
      <trkpt lat="45.13987" lon="4.7317">
        <ele>422</ele>
        <time>2021-02-22T17:45:39Z</time>
      </trkpt>
      <trkpt lat="45.14124" lon="4.73057">
        <ele>409</ele>
        <time>2021-02-22T17:47:46Z</time>
      </trkpt>
      <trkpt lat="45.14224" lon="4.73088">
        <ele>405</ele>
        <time>2021-02-22T17:49:08Z</time>
      </trkpt>
      <trkpt lat="45.14203" lon="4.7319">
        <ele>412</ele>
        <time>2021-02-22T17:50:08Z</time>
      </trkpt>
      <trkpt lat="45.1434" lon="4.73103">
        <ele>397</ele>
        <time>2021-02-22T17:52:08Z</time>
      </trkpt>
      <trkpt lat="45.14336" lon="4.73027">
        <ele>398</ele>
        <time>2021-02-22T17:52:51Z</time>
      </trkpt>
      <trkpt lat="45.14458" lon="4.73062">
        <ele>411</ele>
        <time>2021-02-22T17:54:31Z</time>
      </trkpt>
      <trkpt lat="45.14444" lon="4.72792">
        <ele>416</ele>
        <time>2021-02-22T17:57:04Z</time>
      </trkpt>
      <trkpt lat="45.14433" lon="4.72669">
        <ele>422</ele>
        <time>2021-02-22T17:58:14Z</time>
      </trkpt>
      <trkpt lat="45.14358" lon="4.72572">
        <ele>422</ele>
        <time>2021-02-22T17:59:35Z</time>
      </trkpt>
      <trkpt lat="45.14376" lon="4.72368">
        <ele>422</ele>
        <time>2021-02-22T18:01:31Z</time>
      </trkpt>
      <trkpt lat="45.14397" lon="4.72072">
        <ele>429</ele>
        <time>2021-02-22T18:04:19Z</time>
      </trkpt>
      <trkpt lat="45.14412" lon="4.71955">
        <ele>433</ele>
        <time>2021-02-22T18:05:26Z</time>
      </trkpt>
      <trkpt lat="45.14282" lon="4.71832">
        <ele>432</ele>
        <time>2021-02-22T18:07:31Z</time>
      </trkpt>
      <trkpt lat="45.14131" lon="4.71644">
        <ele>439</ele>
        <time>2021-02-22T18:10:12Z</time>
      </trkpt>
      <trkpt lat="45.14239" lon="4.71552">
        <ele>445</ele>
        <time>2021-02-22T18:11:53Z</time>
      </trkpt>
      <trkpt lat="45.14304" lon="4.71378">
        <ele>449</ele>
        <time>2021-02-22T18:13:44Z</time>
      </trkpt>
      <trkpt lat="45.14365" lon="4.71184">
        <ele>455</ele>
        <time>2021-02-22T18:15:44Z</time>
      </trkpt>
      <trkpt lat="45.14462" lon="4.71092">
        <ele>460</ele>
        <time>2021-02-22T18:17:18Z</time>
      </trkpt>
      <trkpt lat="45.14462" lon="4.71001">
        <ele>463</ele>
        <time>2021-02-22T18:18:09Z</time>
      </trkpt>
      <trkpt lat="45.14498" lon="4.70899">
        <ele>468</ele>
        <time>2021-02-22T18:19:14Z</time>
      </trkpt>
      <trkpt lat="45.14556" lon="4.70796">
        <ele>470</ele>
        <time>2021-02-22T18:20:28Z</time>
      </trkpt>
      <trkpt lat="45.14602" lon="4.70689">
        <ele>472</ele>
        <time>2021-02-22T18:21:39Z</time>
      </trkpt>
      <trkpt lat="45.14638" lon="4.70597">
        <ele>474</ele>
        <time>2021-02-22T18:22:38Z</time>
      </trkpt>
      <trkpt lat="45.14574" lon="4.70521">
        <ele>475</ele>
        <time>2021-02-22T18:23:45Z</time>
      </trkpt>
      <trkpt lat="45.14484" lon="4.70465">
        <ele>476</ele>
        <time>2021-02-22T18:25:04Z</time>
      </trkpt>
      <trkpt lat="45.14386" lon="4.70398">
        <ele>479</ele>
        <time>2021-02-22T18:26:31Z</time>
      </trkpt>
      <trkpt lat="45.14289" lon="4.70337">
        <ele>484</ele>
        <time>2021-02-22T18:27:56Z</time>
      </trkpt>
      <trkpt lat="45.14217" lon="4.70215">
        <ele>489</ele>
        <time>2021-02-22T18:29:26Z</time>
      </trkpt>
      <trkpt lat="45.14091" lon="4.70046">
        <ele>506</ele>
        <time>2021-02-22T18:31:45Z</time>
      </trkpt>
      <trkpt lat="45.13987" lon="4.69878">
        <ele>513</ele>
        <time>2021-02-22T18:33:51Z</time>
      </trkpt>
      <trkpt lat="45.13879" lon="4.6974">
        <ele>503</ele>
        <time>2021-02-22T18:35:47Z</time>
      </trkpt>
      <trkpt lat="45.13731" lon="4.69633">
        <ele>489</ele>
        <time>2021-02-22T18:38:00Z</time>
      </trkpt>
      <trkpt lat="45.13584" lon="4.69521">
        <ele>484</ele>
        <time>2021-02-22T18:40:14Z</time>
      </trkpt>
      <trkpt lat="45.13497" lon="4.69393">
        <ele>485</ele>
        <time>2021-02-22T18:41:54Z</time>
      </trkpt>
      <trkpt lat="45.13497" lon="4.69245">
        <ele>496</ele>
        <time>2021-02-22T18:43:18Z</time>
      </trkpt>
      <trkpt lat="45.13677" lon="4.69235">
        <ele>509</ele>
        <time>2021-02-22T18:45:42Z</time>
      </trkpt>
      <trkpt lat="45.13846" lon="4.69204">
        <ele>523</ele>
        <time>2021-02-22T18:47:59Z</time>
      </trkpt>
      <trkpt lat="45.13972" lon="4.69214">
        <ele>532</ele>
        <time>2021-02-22T18:49:40Z</time>
      </trkpt>
      <trkpt lat="45.14059" lon="4.69225">
        <ele>540</ele>
        <time>2021-02-22T18:50:50Z</time>
      </trkpt>
      <trkpt lat="45.1399" lon="4.69087">
        <ele>547</ele>
        <time>2021-02-22T18:52:25Z</time>
      </trkpt>
      <trkpt lat="45.13897" lon="4.68821">
        <ele>553</ele>
        <time>2021-02-22T18:55:13Z</time>
      </trkpt>
      <trkpt lat="45.13843" lon="4.6875">
        <ele>548</ele>
        <time>2021-02-22T18:56:12Z</time>
      </trkpt>
      <trkpt lat="45.13782" lon="4.68668">
        <ele>548</ele>
        <time>2021-02-22T18:57:19Z</time>
      </trkpt>
      <trkpt lat="45.13652" lon="4.68592">
        <ele>555</ele>
        <time>2021-02-22T18:59:12Z</time>
      </trkpt>
      <trkpt lat="45.1353" lon="4.68515">
        <ele>559</ele>
        <time>2021-02-22T19:00:59Z</time>
      </trkpt>
      <trkpt lat="45.13458" lon="4.68398">
        <ele>567</ele>
        <time>2021-02-22T19:02:26Z</time>
      </trkpt>
      <trkpt lat="45.13479" lon="4.6828">
        <ele>571</ele>
        <time>2021-02-22T19:03:35Z</time>
      </trkpt>
      <trkpt lat="45.13479" lon="4.68163">
        <ele>570</ele>
        <time>2021-02-22T19:04:41Z</time>
      </trkpt>
      <trkpt lat="45.13414" lon="4.68097">
        <ele>580</ele>
        <time>2021-02-22T19:05:45Z</time>
      </trkpt>
      <trkpt lat="45.1336" lon="4.68071">
        <ele>593</ele>
        <time>2021-02-22T19:06:31Z</time>
      </trkpt>
      <trkpt lat="45.13285" lon="4.67984">
        <ele>589</ele>
        <time>2021-02-22T19:07:48Z</time>
      </trkpt>
      <trkpt lat="45.1317" lon="4.68015">
        <ele>594</ele>
        <time>2021-02-22T19:09:22Z</time>
      </trkpt>
      <trkpt lat="45.13119" lon="4.68102">
        <ele>609</ele>
        <time>2021-02-22T19:10:26Z</time>
      </trkpt>
      <trkpt lat="45.13098" lon="4.6825">
        <ele>618</ele>
        <time>2021-02-22T19:11:51Z</time>
      </trkpt>
      <trkpt lat="45.13004" lon="4.68286">
        <ele>621</ele>
        <time>2021-02-22T19:13:09Z</time>
      </trkpt>
      <trkpt lat="45.12918" lon="4.68234">
        <ele>632</ele>
        <time>2021-02-22T19:14:24Z</time>
      </trkpt>
      <trkpt lat="45.12781" lon="4.68255">
        <ele>652</ele>
        <time>2021-02-22T19:16:14Z</time>
      </trkpt>
      <trkpt lat="45.1277" lon="4.68138">
        <ele>663</ele>
        <time>2021-02-22T19:17:21Z</time>
      </trkpt>
      <trkpt lat="45.12698" lon="4.68071">
        <ele>673</ele>
        <time>2021-02-22T19:18:30Z</time>
      </trkpt>
      <trkpt lat="45.12622" lon="4.67984">
        <ele>676</ele>
        <time>2021-02-22T19:19:48Z</time>
      </trkpt>
      <trkpt lat="45.12489" lon="4.67857">
        <ele>675</ele>
        <time>2021-02-22T19:21:57Z</time>
      </trkpt>
      <trkpt lat="45.12457" lon="4.67668">
        <ele>685</ele>
        <time>2021-02-22T19:23:46Z</time>
      </trkpt>
      <trkpt lat="45.12449" lon="4.67556">
        <ele>685</ele>
        <time>2021-02-22T19:24:50Z</time>
      </trkpt>
      <trkpt lat="45.12363" lon="4.67515">
        <ele>686</ele>
        <time>2021-02-22T19:26:03Z</time>
      </trkpt>
      <trkpt lat="45.12262" lon="4.67632">
        <ele>694</ele>
        <time>2021-02-22T19:27:47Z</time>
      </trkpt>
      <trkpt lat="45.12205" lon="4.67653">
        <ele>707</ele>
        <time>2021-02-22T19:28:34Z</time>
      </trkpt>
      <trkpt lat="45.1223" lon="4.67387">
        <ele>680</ele>
        <time>2021-02-22T19:31:06Z</time>
      </trkpt>
      <trkpt lat="45.12226" lon="4.67188">
        <ele>669</ele>
        <time>2021-02-22T19:32:58Z</time>
      </trkpt>
      <trkpt lat="45.12309" lon="4.67005">
        <ele>653</ele>
        <time>2021-02-22T19:35:01Z</time>
      </trkpt>
      <trkpt lat="45.12349" lon="4.6678">
        <ele>644</ele>
        <time>2021-02-22T19:37:12Z</time>
      </trkpt>
      <trkpt lat="45.12338" lon="4.6654">
        <ele>634</ele>
        <time>2021-02-22T19:39:28Z</time>
      </trkpt>
      <trkpt lat="45.12284" lon="4.66407">
        <ele>622</ele>
        <time>2021-02-22T19:40:55Z</time>
      </trkpt>
      <trkpt lat="45.12187" lon="4.66346">
        <ele>626</ele>
        <time>2021-02-22T19:42:20Z</time>
      </trkpt>
      <trkpt lat="45.12133" lon="4.66081">
        <ele>619</ele>
        <time>2021-02-22T19:44:56Z</time>
      </trkpt>
      <trkpt lat="45.12079" lon="4.65999">
        <ele>634</ele>
        <time>2021-02-22T19:45:59Z</time>
      </trkpt>
      <trkpt lat="45.12082" lon="4.65933">
        <ele>633</ele>
        <time>2021-02-22T19:46:36Z</time>
      </trkpt>
      <trkpt lat="45.12021" lon="4.65912">
        <ele>648</ele>
        <time>2021-02-22T19:47:27Z</time>
      </trkpt>
      <trkpt lat="45.11938" lon="4.65718">
        <ele>666</ele>
        <time>2021-02-22T19:49:35Z</time>
      </trkpt>
      <trkpt lat="45.11891" lon="4.65535">
        <ele>678</ele>
        <time>2021-02-22T19:51:25Z</time>
      </trkpt>
      <trkpt lat="45.1183" lon="4.65545">
        <ele>689</ele>
        <time>2021-02-22T19:52:14Z</time>
      </trkpt>
      <trkpt lat="45.11751" lon="4.6556">
        <ele>698</ele>
        <time>2021-02-22T19:53:18Z</time>
      </trkpt>
      <trkpt lat="45.1169" lon="4.65387">
        <ele>702</ele>
        <time>2021-02-22T19:55:07Z</time>
      </trkpt>
      <trkpt lat="45.11596" lon="4.65361">
        <ele>735</ele>
        <time>2021-02-22T19:56:24Z</time>
      </trkpt>
      <trkpt lat="45.11484" lon="4.6531">
        <ele>760</ele>
        <time>2021-02-22T19:57:58Z</time>
      </trkpt>
      <trkpt lat="45.11369" lon="4.6529">
        <ele>780</ele>
        <time>2021-02-22T19:59:31Z</time>
      </trkpt>
      <trkpt lat="45.11272" lon="4.65305">
        <ele>786</ele>
        <time>2021-02-22T20:00:49Z</time>
      </trkpt>
      <trkpt lat="45.11265" lon="4.65428">
        <ele>797</ele>
        <time>2021-02-22T20:01:59Z</time>
      </trkpt>
      <trkpt lat="45.11315" lon="4.65606">
        <ele>820</ele>
        <time>2021-02-22T20:03:47Z</time>
      </trkpt>
      <trkpt lat="45.11365" lon="4.65785">
        <ele>815</ele>
        <time>2021-02-22T20:05:36Z</time>
      </trkpt>
      <trkpt lat="45.11456" lon="4.65877">
        <ele>805</ele>
        <time>2021-02-22T20:07:05Z</time>
      </trkpt>
      <trkpt lat="45.11528" lon="4.65979">
        <ele>788</ele>
        <time>2021-02-22T20:08:27Z</time>
      </trkpt>
      <trkpt lat="45.11618" lon="4.66081">
        <ele>783</ele>
        <time>2021-02-22T20:09:59Z</time>
      </trkpt>
      <trkpt lat="45.11553" lon="4.66117">
        <ele>781</ele>
        <time>2021-02-22T20:10:55Z</time>
      </trkpt>
      <trkpt lat="45.11553" lon="4.66203">
        <ele>773</ele>
        <time>2021-02-22T20:11:43Z</time>
      </trkpt>
      <trkpt lat="45.11603" lon="4.66219">
        <ele>776</ele>
        <time>2021-02-22T20:12:25Z</time>
      </trkpt>
      <trkpt lat="45.11643" lon="4.66382">
        <ele>763</ele>
        <time>2021-02-22T20:14:02Z</time>
      </trkpt>
      <trkpt lat="45.11718" lon="4.66535">
        <ele>767</ele>
        <time>2021-02-22T20:15:47Z</time>
      </trkpt>
      <trkpt lat="45.11765" lon="4.66658">
        <ele>771</ele>
        <time>2021-02-22T20:17:06Z</time>
      </trkpt>
      <trkpt lat="45.11859" lon="4.66841">
        <ele>764</ele>
        <time>2021-02-22T20:19:14Z</time>
      </trkpt>
      <trkpt lat="45.1192" lon="4.66999">
        <ele>750</ele>
        <time>2021-02-22T20:20:56Z</time>
      </trkpt>
      <trkpt lat="45.11956" lon="4.67147">
        <ele>753</ele>
        <time>2021-02-22T20:22:24Z</time>
      </trkpt>
      <trkpt lat="45.11974" lon="4.67316">
        <ele>759</ele>
        <time>2021-02-22T20:24:01Z</time>
      </trkpt>
      <trkpt lat="45.1196" lon="4.67362">
        <ele>763</ele>
        <time>2021-02-22T20:24:29Z</time>
      </trkpt>
      <trkpt lat="45.11902" lon="4.67433">
        <ele>776</ele>
        <time>2021-02-22T20:25:31Z</time>
      </trkpt>
      <trkpt lat="45.11812" lon="4.67469">
        <ele>786</ele>
        <time>2021-02-22T20:26:46Z</time>
      </trkpt>
      <trkpt lat="45.11747" lon="4.6753">
        <ele>782</ele>
        <time>2021-02-22T20:27:48Z</time>
      </trkpt>
      <trkpt lat="45.11682" lon="4.67658">
        <ele>770</ele>
        <time>2021-02-22T20:29:17Z</time>
      </trkpt>
      <trkpt lat="45.11607" lon="4.67785">
        <ele>757</ele>
        <time>2021-02-22T20:30:51Z</time>
      </trkpt>
      <trkpt lat="45.11585" lon="4.67745">
        <ele>741</ele>
        <time>2021-02-22T20:31:19Z</time>
      </trkpt>
      <trkpt lat="45.11621" lon="4.67627">
        <ele>740</ele>
        <time>2021-02-22T20:32:32Z</time>
      </trkpt>
      <trkpt lat="45.11636" lon="4.6752">
        <ele>731</ele>
        <time>2021-02-22T20:33:34Z</time>
      </trkpt>
      <trkpt lat="45.1165" lon="4.67398">
        <ele>719</ele>
        <time>2021-02-22T20:34:43Z</time>
      </trkpt>
      <trkpt lat="45.11722" lon="4.67239">
        <ele>710</ele>
        <time>2021-02-22T20:36:30Z</time>
      </trkpt>
      <trkpt lat="45.11625" lon="4.67265">
        <ele>685</ele>
        <time>2021-02-22T20:37:49Z</time>
      </trkpt>
      <trkpt lat="45.116" lon="4.67336">
        <ele>688</ele>
        <time>2021-02-22T20:38:34Z</time>
      </trkpt>
      <trkpt lat="45.11531" lon="4.67398">
        <ele>675</ele>
        <time>2021-02-22T20:39:39Z</time>
      </trkpt>
      <trkpt lat="45.11463" lon="4.67382">
        <ele>654</ele>
        <time>2021-02-22T20:40:35Z</time>
      </trkpt>
      <trkpt lat="45.11427" lon="4.67535">
        <ele>653</ele>
        <time>2021-02-22T20:42:06Z</time>
      </trkpt>
      <trkpt lat="45.11315" lon="4.67535">
        <ele>641</ele>
        <time>2021-02-22T20:43:35Z</time>
      </trkpt>
      <trkpt lat="45.11225" lon="4.67556">
        <ele>628</ele>
        <time>2021-02-22T20:44:48Z</time>
      </trkpt>
      <trkpt lat="45.11189" lon="4.67704">
        <ele>615</ele>
        <time>2021-02-22T20:46:17Z</time>
      </trkpt>
      <trkpt lat="45.11225" lon="4.67857">
        <ele>624</ele>
        <time>2021-02-22T20:47:48Z</time>
      </trkpt>
      <trkpt lat="45.11221" lon="4.68">
        <ele>618</ele>
        <time>2021-02-22T20:49:09Z</time>
      </trkpt>
      <trkpt lat="45.11203" lon="4.68127">
        <ele>602</ele>
        <time>2021-02-22T20:50:22Z</time>
      </trkpt>
      <trkpt lat="45.11189" lon="4.6826">
        <ele>588</ele>
        <time>2021-02-22T20:51:38Z</time>
      </trkpt>
      <trkpt lat="45.112" lon="4.68326">
        <ele>584</ele>
        <time>2021-02-22T20:52:16Z</time>
      </trkpt>
      <trkpt lat="45.11131" lon="4.68434">
        <ele>566</ele>
        <time>2021-02-22T20:53:39Z</time>
      </trkpt>
      <trkpt lat="45.11005" lon="4.68533">
        <ele>550</ele>
        <time>2021-02-22T20:55:34Z</time>
      </trkpt>
      <trkpt lat="45.10998" lon="4.68604">
        <ele>546</ele>
        <time>2021-02-22T20:56:15Z</time>
      </trkpt>
      <trkpt lat="45.10832" lon="4.68742">
        <ele>527</ele>
        <time>2021-02-22T20:58:49Z</time>
      </trkpt>
      <trkpt lat="45.1076" lon="4.6864">
        <ele>523</ele>
        <time>2021-02-22T21:00:10Z</time>
      </trkpt>
      <trkpt lat="45.10739" lon="4.68405">
        <ele>521</ele>
        <time>2021-02-22T21:02:24Z</time>
      </trkpt>
      <trkpt lat="45.10627" lon="4.68232">
        <ele>524</ele>
        <time>2021-02-22T21:04:37Z</time>
      </trkpt>
      <trkpt lat="45.10451" lon="4.68038">
        <ele>539</ele>
        <time>2021-02-22T21:07:35Z</time>
      </trkpt>
      <trkpt lat="45.10346" lon="4.68002">
        <ele>554</ele>
        <time>2021-02-22T21:09:02Z</time>
      </trkpt>
      <trkpt lat="45.1053" lon="4.68411">
        <ele>523</ele>
        <time>2021-02-22T21:13:36Z</time>
      </trkpt>
      <trkpt lat="45.104" lon="4.6864">
        <ele>537</ele>
        <time>2021-02-22T21:16:22Z</time>
      </trkpt>
      <trkpt lat="45.10379" lon="4.68717">
        <ele>535</ele>
        <time>2021-02-22T21:17:09Z</time>
      </trkpt>
      <trkpt lat="45.10418" lon="4.68747">
        <ele>532</ele>
        <time>2021-02-22T21:17:44Z</time>
      </trkpt>
      <trkpt lat="45.10379" lon="4.68839">
        <ele>525</ele>
        <time>2021-02-22T21:18:45Z</time>
      </trkpt>
      <trkpt lat="45.10415" lon="4.68911">
        <ele>519</ele>
        <time>2021-02-22T21:19:35Z</time>
      </trkpt>
      <trkpt lat="45.10566" lon="4.68921">
        <ele>509</ele>
        <time>2021-02-22T21:21:36Z</time>
      </trkpt>
      <trkpt lat="45.10573" lon="4.69003">
        <ele>507</ele>
        <time>2021-02-22T21:22:22Z</time>
      </trkpt>
      <trkpt lat="45.10624" lon="4.69069">
        <ele>505</ele>
        <time>2021-02-22T21:23:18Z</time>
      </trkpt>
      <trkpt lat="45.10631" lon="4.69237">
        <ele>504</ele>
        <time>2021-02-22T21:24:53Z</time>
      </trkpt>
      <trkpt lat="45.10562" lon="4.69304">
        <ele>499</ele>
        <time>2021-02-22T21:26:00Z</time>
      </trkpt>
      <trkpt lat="45.10505" lon="4.69431">
        <ele>494</ele>
        <time>2021-02-22T21:27:25Z</time>
      </trkpt>
      <trkpt lat="45.10616" lon="4.69431">
        <ele>499</ele>
        <time>2021-02-22T21:28:54Z</time>
      </trkpt>
      <trkpt lat="45.10692" lon="4.69365">
        <ele>508</ele>
        <time>2021-02-22T21:30:05Z</time>
      </trkpt>
      <trkpt lat="45.10746" lon="4.69605">
        <ele>510</ele>
        <time>2021-02-22T21:32:27Z</time>
      </trkpt>
      <trkpt lat="45.1085" lon="4.69855">
        <ele>497</ele>
        <time>2021-02-22T21:35:11Z</time>
      </trkpt>
      <trkpt lat="45.11128" lon="4.69686">
        <ele>504</ele>
        <time>2021-02-22T21:39:14Z</time>
      </trkpt>
      <trkpt lat="45.11193" lon="4.69763">
        <ele>503</ele>
        <time>2021-02-22T21:40:21Z</time>
      </trkpt>
      <trkpt lat="45.11275" lon="4.70151">
        <ele>505</ele>
        <time>2021-02-22T21:44:10Z</time>
      </trkpt>
      <trkpt lat="45.11196" lon="4.70222">
        <ele>505</ele>
        <time>2021-02-22T21:45:25Z</time>
      </trkpt>
      <trkpt lat="45.11182" lon="4.7035">
        <ele>509</ele>
        <time>2021-02-22T21:46:38Z</time>
      </trkpt>
      <trkpt lat="45.11218" lon="4.70396">
        <ele>513</ele>
        <time>2021-02-22T21:47:17Z</time>
      </trkpt>
      <trkpt lat="45.11239" lon="4.70488">
        <ele>518</ele>
        <time>2021-02-22T21:48:12Z</time>
      </trkpt>
      <trkpt lat="45.11355" lon="4.70651">
        <ele>529</ele>
        <time>2021-02-22T21:50:23Z</time>
      </trkpt>
      <trkpt lat="45.11211" lon="4.71075">
        <ele>544</ele>
        <time>2021-02-22T21:54:49Z</time>
      </trkpt>
      <trkpt lat="45.1107" lon="4.71478">
        <ele>541</ele>
        <time>2021-02-22T21:59:03Z</time>
      </trkpt>
      <trkpt lat="45.1098" lon="4.71427">
        <ele>544</ele>
        <time>2021-02-22T22:00:20Z</time>
      </trkpt>
      <trkpt lat="45.10958" lon="4.71702">
        <ele>531</ele>
        <time>2021-02-22T22:02:57Z</time>
      </trkpt>
      <trkpt lat="45.11124" lon="4.71845">
        <ele>520</ele>
        <time>2021-02-22T22:05:32Z</time>
      </trkpt>
      <trkpt lat="45.11232" lon="4.71901">
        <ele>513</ele>
        <time>2021-02-22T22:07:04Z</time>
      </trkpt>
      <trkpt lat="45.11445" lon="4.71896">
        <ele>511</ele>
        <time>2021-02-22T22:09:55Z</time>
      </trkpt>
      <trkpt lat="45.11686" lon="4.71978">
        <ele>509</ele>
        <time>2021-02-22T22:13:13Z</time>
      </trkpt>
      <trkpt lat="45.11945" lon="4.71998">
        <ele>521</ele>
        <time>2021-02-22T22:16:41Z</time>
      </trkpt>
      <trkpt lat="45.12208" lon="4.72197">
        <ele>487</ele>
        <time>2021-02-22T22:20:40Z</time>
      </trkpt>
      <trkpt lat="45.12122" lon="4.72361">
        <ele>482</ele>
        <time>2021-02-22T22:22:35Z</time>
      </trkpt>
      <trkpt lat="45.11902" lon="4.72611">
        <ele>494</ele>
        <time>2021-02-22T22:26:21Z</time>
      </trkpt>
      <trkpt lat="45.11981" lon="4.72682">
        <ele>493</ele>
        <time>2021-02-22T22:27:36Z</time>
      </trkpt>
      <trkpt lat="45.12302" lon="4.72733">
        <ele>487</ele>
        <time>2021-02-22T22:31:54Z</time>
      </trkpt>
      <trkpt lat="45.12593" lon="4.72805">
        <ele>474</ele>
        <time>2021-02-22T22:35:51Z</time>
      </trkpt>
      <trkpt lat="45.1295" lon="4.72708">
        <ele>467</ele>
        <time>2021-02-22T22:40:42Z</time>
      </trkpt>
      <trkpt lat="45.13144" lon="4.7258">
        <ele>460</ele>
        <time>2021-02-22T22:43:33Z</time>
      </trkpt>
      <trkpt lat="45.13292" lon="4.72641">
        <ele>446</ele>
        <time>2021-02-22T22:45:37Z</time>
      </trkpt>
      <trkpt lat="45.13274" lon="4.72902">
        <ele>438</ele>
        <time>2021-02-22T22:48:05Z</time>
      </trkpt>
      <trkpt lat="45.13285" lon="4.73009">
        <ele>442</ele>
        <time>2021-02-22T22:49:06Z</time>
      </trkpt>
      <trkpt lat="45.13411" lon="4.72978">
        <ele>439</ele>
        <time>2021-02-22T22:50:48Z</time>
      </trkpt>
      <trkpt lat="45.134" lon="4.73055">
        <ele>446</ele>
        <time>2021-02-22T22:51:33Z</time>
      </trkpt>
      <trkpt lat="45.13576" lon="4.73024">
        <ele>441</ele>
        <time>2021-02-22T22:53:55Z</time>
      </trkpt>
      <trkpt lat="45.13672" lon="4.7324">
        <ele>438</ele>
        <time>2021-02-22T22:56:19Z</time>
      </trkpt>
      <trkpt lat="45.13702" lon="4.73212">
        <ele>435</ele>
        <time>2021-02-22T22:56:48Z</time>
      </trkpt>
      <trkpt lat="45.13728" lon="4.7326">
        <ele>433</ele>
        <time>2021-02-22T22:57:22Z</time>
      </trkpt>
    </trkseg>
  </trk>
</gpx>